Terminal Aerodrome Forecast
Issued by NWS

Home | Current Version | Previous Version | Text Only | Print | Product List | Glossary On
Versions: 1 2 3 4 5 6 7 8 9 10 11 12 13 14 15
404
FTUS43 KICT 221120
TAFSLN
TAF
KSLN 221120Z 2212/2312 30005KT P6SM SKC
     FM230000 19006KT P6SM SKC
     FM231000 23006KT P6SM SKC WS006/33010KT=

USA.gov is the U.S. government's official web portal to all federal, state and local government web resources and services.